sensor_id;sensor_type;location;lat;lon;timestamp;temperature;humidity
18777;DHT22;9517;51.174;4.160;2022-08-19T00:01:29;19.90;99.90
18777;DHT22;9517;51.174;4.160;2022-08-19T00:03:57;19.90;99.90
18777;DHT22;9517;51.174;4.160;2022-08-19T00:06:24;19.90;99.90
18777;DHT22;9517;51.174;4.160;2022-08-19T00:08:53;19.90;99.90
18777;DHT22;9517;51.174;4.160;2022-08-19T00:11:21;19.90;99.90
18777;DHT22;9517;51.174;4.160;2022-08-19T00:13:50;19.80;99.90
18777;DHT22;9517;51.174;4.160;2022-08-19T00:16:18;19.80;99.90
18777;DHT22;9517;51.174;4.160;2022-08-19T00:18:45;19.70;99.90
18777;DHT22;9517;51.174;4.160;2022-08-19T00:21:12;19.70;99.90
18777;DHT22;9517;51.174;4.160;2022-08-19T00:23:40;19.60;99.90
18777;DHT22;9517;51.174;4.160;2022-08-19T00:26:09;19.60;99.90
18777;DHT22;9517;51.174;4.160;2022-08-19T00:28:37;19.60;99.90
18777;DHT22;9517;51.174;4.160;2022-08-19T00:31:07;19.50;99.90
18777;DHT22;9517;51.174;4.160;2022-08-19T00:33:35;19.50;99.90
18777;DHT22;9517;51.174;4.160;2022-08-19T00:36:04;19.40;99.90
18777;DHT22;9517;51.174;4.160;2022-08-19T00:38:32;19.50;99.90
18777;DHT22;9517;51.174;4.160;2022-08-19T00:40:59;19.50;99.90
18777;DHT22;9517;51.174;4.160;2022-08-19T00:43:28;19.40;99.90
18777;DHT22;9517;51.174;4.160;2022-08-19T00:45:55;19.30;99.90
18777;DHT22;9517;51.174;4.160;2022-08-19T00:48:29;19.20;99.90
18777;DHT22;9517;51.174;4.160;2022-08-19T00:50:57;19.20;99.90
18777;DHT22;9517;51.174;4.160;2022-08-19T00:53:29;19.20;99.90
18777;DHT22;9517;51.174;4.160;2022-08-19T00:56:00;19.10;99.90
18777;DHT22;9517;51.174;4.160;2022-08-19T00:58:32;19.10;99.90
18777;DHT22;9517;51.174;4.160;2022-08-19T01:01:00;19.10;99.90
18777;DHT22;9517;51.174;4.160;2022-08-19T01:03:29;19.10;99.90
18777;DHT22;9517;51.174;4.160;2022-08-19T01:05:56;19.00;99.90
18777;DHT22;9517;51.174;4.160;2022-08-19T01:08:24;19.00;99.90
18777;DHT22;9517;51.174;4.160;2022-08-19T01:10:53;19.10;99.90
18777;DHT22;9517;51.174;4.160;2022-08-19T01:13:27;19.20;99.90
18777;DHT22;9517;51.174;4.160;2022-08-19T01:15:59;19.20;99.90
18777;DHT22;9517;51.174;4.160;2022-08-19T01:18:29;19.30;99.90
18777;DHT22;9517;51.174;4.160;2022-08-19T01:21:01;19.40;99.90
18777;DHT22;9517;51.174;4.160;2022-08-19T01:23:30;19.30;99.90
18777;DHT22;9517;51.174;4.160;2022-08-19T01:26:11;19.20;99.90
18777;DHT22;9517;51.174;4.160;2022-08-19T01:28:40;19.20;99.90
18777;DHT22;9517;51.174;4.160;2022-08-19T01:31:10;19.00;99.90
18777;DHT22;9517;51.174;4.160;2022-08-19T01:33:37;19.10;99.90
18777;DHT22;9517;51.174;4.160;2022-08-19T01:36:07;19.00;99.90
18777;DHT22;9517;51.174;4.160;2022-08-19T01:38:38;19.00;99.90
18777;DHT22;9517;51.174;4.160;2022-08-19T01:41:05;19.00;99.90
18777;DHT22;9517;51.174;4.160;2022-08-19T01:43:33;19.10;99.90
18777;DHT22;9517;51.174;4.160;2022-08-19T01:46:01;19.00;99.90
18777;DHT22;9517;51.174;4.160;2022-08-19T01:48:33;19.00;99.90
18777;DHT22;9517;51.174;4.160;2022-08-19T01:51:00;19.00;99.90
18777;DHT22;9517;51.174;4.160;2022-08-19T01:53:28;18.90;99.90
18777;DHT22;9517;51.174;4.160;2022-08-19T01:55:59;18.70;99.90
18777;DHT22;9517;51.174;4.160;2022-08-19T01:58:29;18.70;99.90
18777;DHT22;9517;51.174;4.160;2022-08-19T02:01:02;18.80;99.90
18777;DHT22;9517;51.174;4.160;2022-08-19T02:03:29;18.80;99.90
18777;DHT22;9517;51.174;4.160;2022-08-19T02:05:58;18.80;99.90
18777;DHT22;9517;51.174;4.160;2022-08-19T02:08:28;18.80;99.90
18777;DHT22;9517;51.174;4.160;2022-08-19T02:10:58;18.70;99.90
18777;DHT22;9517;51.174;4.160;2022-08-19T02:13:26;18.70;99.90
18777;DHT22;9517;51.174;4.160;2022-08-19T02:15:53;18.80;99.90
18777;DHT22;9517;51.174;4.160;2022-08-19T02:18:20;18.70;99.90
18777;DHT22;9517;51.174;4.160;2022-08-19T02:20:47;18.70;99.90
18777;DHT22;9517;51.174;4.160;2022-08-19T02:23:16;18.60;99.90
18777;DHT22;9517;51.174;4.160;2022-08-19T02:25:45;18.50;99.90
18777;DHT22;9517;51.174;4.160;2022-08-19T02:28:15;18.40;99.90
18777;DHT22;9517;51.174;4.160;2022-08-19T02:30:42;18.40;99.90
18777;DHT22;9517;51.174;4.160;2022-08-19T02:33:09;18.40;99.90
18777;DHT22;9517;51.174;4.160;2022-08-19T02:35:36;18.30;99.90
18777;DHT22;9517;51.174;4.160;2022-08-19T02:38:03;18.20;99.90
18777;DHT22;9517;51.174;4.160;2022-08-19T02:40:49;18.20;99.90
18777;DHT22;9517;51.174;4.160;2022-08-19T02:43:19;18.20;99.90
18777;DHT22;9517;51.174;4.160;2022-08-19T02:45:47;18.10;99.90
18777;DHT22;9517;51.174;4.160;2022-08-19T02:48:15;18.10;99.90
18777;DHT22;9517;51.174;4.160;2022-08-19T02:50:44;18.10;99.90
18777;DHT22;9517;51.174;4.160;2022-08-19T02:53:12;18.10;99.90
18777;DHT22;9517;51.174;4.160;2022-08-19T02:55:43;18.00;99.90
18777;DHT22;9517;51.174;4.160;2022-08-19T02:58:11;18.00;99.90
18777;DHT22;9517;51.174;4.160;2022-08-19T03:00:44;17.90;99.90
18777;DHT22;9517;51.174;4.160;2022-08-19T03:03:11;17.80;99.90
18777;DHT22;9517;51.174;4.160;2022-08-19T03:05:39;17.90;99.90
18777;DHT22;9517;51.174;4.160;2022-08-19T03:08:07;18.00;99.90
18777;DHT22;9517;51.174;4.160;2022-08-19T03:10:40;17.90;99.90
18777;DHT22;9517;51.174;4.160;2022-08-19T03:13:15;17.90;99.90
18777;DHT22;9517;51.174;4.160;2022-08-19T03:15:46;17.90;99.90
18777;DHT22;9517;51.174;4.160;2022-08-19T03:18:14;17.90;99.90
18777;DHT22;9517;51.174;4.160;2022-08-19T03:20:43;17.90;99.90
18777;DHT22;9517;51.174;4.160;2022-08-19T03:23:11;17.80;99.90
18777;DHT22;9517;51.174;4.160;2022-08-19T03:25:40;17.80;99.90
18777;DHT22;9517;51.174;4.160;2022-08-19T03:28:09;17.70;99.90
18777;DHT22;9517;51.174;4.160;2022-08-19T03:30:37;17.70;99.90
18777;DHT22;9517;51.174;4.160;2022-08-19T03:33:08;17.60;99.90
18777;DHT22;9517;51.174;4.160;2022-08-19T03:35:37;17.60;99.90
18777;DHT22;9517;51.174;4.160;2022-08-19T03:38:04;17.50;99.90
18777;DHT22;9517;51.174;4.160;2022-08-19T03:40:36;17.60;99.90
18777;DHT22;9517;51.174;4.160;2022-08-19T03:43:03;17.60;99.90
18777;DHT22;9517;51.174;4.160;2022-08-19T03:45:31;17.50;99.90
18777;DHT22;9517;51.174;4.160;2022-08-19T03:48:00;17.40;99.90
18777;DHT22;9517;51.174;4.160;2022-08-19T03:50:29;17.40;99.90
18777;DHT22;9517;51.174;4.160;2022-08-19T03:52:56;17.40;99.90
18777;DHT22;9517;51.174;4.160;2022-08-19T03:55:23;17.40;99.90
18777;DHT22;9517;51.174;4.160;2022-08-19T03:57:50;17.40;99.90
18777;DHT22;9517;51.174;4.160;2022-08-19T04:00:18;17.40;99.90
18777;DHT22;9517;51.174;4.160;2022-08-19T04:02:48;17.40;99.90
18777;DHT22;9517;51.174;4.160;2022-08-19T04:05:15;17.40;99.90
18777;DHT22;9517;51.174;4.160;2022-08-19T04:07:46;17.30;99.90
18777;DHT22;9517;51.174;4.160;2022-08-19T04:10:13;17.30;99.90
18777;DHT22;9517;51.174;4.160;2022-08-19T04:12:40;17.40;99.90
18777;DHT22;9517;51.174;4.160;2022-08-19T04:15:07;17.30;99.90
18777;DHT22;9517;51.174;4.160;2022-08-19T04:17:35;17.30;99.90
18777;DHT22;9517;51.174;4.160;2022-08-19T04:20:02;17.30;99.90
18777;DHT22;9517;51.174;4.160;2022-08-19T04:22:29;17.30;99.90
18777;DHT22;9517;51.174;4.160;2022-08-19T04:24:58;17.20;99.90
18777;DHT22;9517;51.174;4.160;2022-08-19T04:27:25;17.20;99.90
18777;DHT22;9517;51.174;4.160;2022-08-19T04:29:55;17.30;99.90
18777;DHT22;9517;51.174;4.160;2022-08-19T04:32:22;17.20;99.90
18777;DHT22;9517;51.174;4.160;2022-08-19T04:34:50;17.20;99.90
18777;DHT22;9517;51.174;4.160;2022-08-19T04:37:17;17.10;99.90
18777;DHT22;9517;51.174;4.160;2022-08-19T04:39:44;17.20;99.90
18777;DHT22;9517;51.174;4.160;2022-08-19T04:42:29;17.20;99.90
18777;DHT22;9517;51.174;4.160;2022-08-19T04:45:07;17.20;99.90
18777;DHT22;9517;51.174;4.160;2022-08-19T04:47:36;17.10;99.90
18777;DHT22;9517;51.174;4.160;2022-08-19T04:50:04;17.20;99.90
18777;DHT22;9517;51.174;4.160;2022-08-19T04:52:32;17.20;99.90
18777;DHT22;9517;51.174;4.160;2022-08-19T04:54:59;17.20;99.90
18777;DHT22;9517;51.174;4.160;2022-08-19T04:57:27;17.20;99.90
18777;DHT22;9517;51.174;4.160;2022-08-19T04:59:56;17.20;99.90
18777;DHT22;9517;51.174;4.160;2022-08-19T05:02:25;17.20;99.90
18777;DHT22;9517;51.174;4.160;2022-08-19T05:04:56;17.20;99.90
18777;DHT22;9517;51.174;4.160;2022-08-19T05:07:26;17.20;99.90
18777;DHT22;9517;51.174;4.160;2022-08-19T05:09:53;17.10;99.90
18777;DHT22;9517;51.174;4.160;2022-08-19T05:12:21;17.20;99.90
18777;DHT22;9517;51.174;4.160;2022-08-19T05:14:48;17.20;99.90
18777;DHT22;9517;51.174;4.160;2022-08-19T05:17:17;17.20;99.90
18777;DHT22;9517;51.174;4.160;2022-08-19T05:19:44;17.30;99.90
18777;DHT22;9517;51.174;4.160;2022-08-19T05:22:28;17.30;99.90
18777;DHT22;9517;51.174;4.160;2022-08-19T05:25:03;17.50;99.90
18777;DHT22;9517;51.174;4.160;2022-08-19T05:27:31;17.50;99.90
18777;DHT22;9517;51.174;4.160;2022-08-19T05:29:59;17.50;99.90
18777;DHT22;9517;51.174;4.160;2022-08-19T05:32:28;17.60;99.90
18777;DHT22;9517;51.174;4.160;2022-08-19T05:34:56;17.60;99.90
18777;DHT22;9517;51.174;4.160;2022-08-19T05:37:23;17.70;99.90
18777;DHT22;9517;51.174;4.160;2022-08-19T05:39:52;17.70;99.90
18777;DHT22;9517;51.174;4.160;2022-08-19T05:42:20;17.90;99.90
18777;DHT22;9517;51.174;4.160;2022-08-19T05:44:49;17.90;99.90
18777;DHT22;9517;51.174;4.160;2022-08-19T05:47:17;17.90;99.90
18777;DHT22;9517;51.174;4.160;2022-08-19T05:49:46;17.90;99.90
18777;DHT22;9517;51.174;4.160;2022-08-19T05:52:15;18.00;99.90
18777;DHT22;9517;51.174;4.160;2022-08-19T05:54:42;18.10;99.90
18777;DHT22;9517;51.174;4.160;2022-08-19T05:57:13;18.30;99.90
18777;DHT22;9517;51.174;4.160;2022-08-19T05:59:40;18.20;99.90
18777;DHT22;9517;51.174;4.160;2022-08-19T06:02:07;18.40;99.90
18777;DHT22;9517;51.174;4.160;2022-08-19T06:04:34;18.40;99.90
18777;DHT22;9517;51.174;4.160;2022-08-19T06:07:03;18.50;99.90
18777;DHT22;9517;51.174;4.160;2022-08-19T06:09:30;18.50;99.90
18777;DHT22;9517;51.174;4.160;2022-08-19T06:11:59;18.60;99.90
18777;DHT22;9517;51.174;4.160;2022-08-19T06:14:30;18.60;99.90
18777;DHT22;9517;51.174;4.160;2022-08-19T06:16:58;18.70;99.90
18777;DHT22;9517;51.174;4.160;2022-08-19T06:19:29;18.80;99.90
18777;DHT22;9517;51.174;4.160;2022-08-19T06:21:58;18.80;99.90
18777;DHT22;9517;51.174;4.160;2022-08-19T06:24:28;18.80;99.90
18777;DHT22;9517;51.174;4.160;2022-08-19T06:26:56;19.00;99.90
18777;DHT22;9517;51.174;4.160;2022-08-19T06:29:25;19.00;99.90
18777;DHT22;9517;51.174;4.160;2022-08-19T06:31:56;19.10;99.90
18777;DHT22;9517;51.174;4.160;2022-08-19T06:34:24;19.00;99.90
18777;DHT22;9517;51.174;4.160;2022-08-19T06:36:53;19.00;99.90
18777;DHT22;9517;51.174;4.160;2022-08-19T06:39:24;18.90;99.90
18777;DHT22;9517;51.174;4.160;2022-08-19T06:41:54;19.10;99.90
18777;DHT22;9517;51.174;4.160;2022-08-19T06:44:23;19.20;99.90
18777;DHT22;9517;51.174;4.160;2022-08-19T06:46:52;19.30;99.90
18777;DHT22;9517;51.174;4.160;2022-08-19T06:49:19;19.40;99.90
18777;DHT22;9517;51.174;4.160;2022-08-19T06:51:48;19.40;99.90
18777;DHT22;9517;51.174;4.160;2022-08-19T06:54:16;19.40;99.90
18777;DHT22;9517;51.174;4.160;2022-08-19T06:56:44;19.40;99.90
18777;DHT22;9517;51.174;4.160;2022-08-19T06:59:14;19.30;99.90
18777;DHT22;9517;51.174;4.160;2022-08-19T07:01:45;19.40;99.90
18777;DHT22;9517;51.174;4.160;2022-08-19T07:04:13;19.60;99.90
18777;DHT22;9517;51.174;4.160;2022-08-19T07:06:41;19.80;99.90
18777;DHT22;9517;51.174;4.160;2022-08-19T07:09:12;19.80;99.90
18777;DHT22;9517;51.174;4.160;2022-08-19T07:11:43;19.70;99.90
18777;DHT22;9517;51.174;4.160;2022-08-19T07:14:12;19.90;99.90
18777;DHT22;9517;51.174;4.160;2022-08-19T07:16:40;19.90;99.90
18777;DHT22;9517;51.174;4.160;2022-08-19T07:19:08;19.90;99.90
18777;DHT22;9517;51.174;4.160;2022-08-19T07:21:35;20.00;99.90
18777;DHT22;9517;51.174;4.160;2022-08-19T07:24:03;19.90;99.90
18777;DHT22;9517;51.174;4.160;2022-08-19T07:26:32;20.20;99.90
18777;DHT22;9517;51.174;4.160;2022-08-19T07:28:59;20.30;99.90
18777;DHT22;9517;51.174;4.160;2022-08-19T07:31:28;20.30;99.90
18777;DHT22;9517;51.174;4.160;2022-08-19T07:34:00;20.10;99.90
18777;DHT22;9517;51.174;4.160;2022-08-19T07:36:29;20.20;99.90
18777;DHT22;9517;51.174;4.160;2022-08-19T07:38:59;20.20;99.90
18777;DHT22;9517;51.174;4.160;2022-08-19T07:41:27;20.30;99.90
18777;DHT22;9517;51.174;4.160;2022-08-19T07:43:57;20.20;99.90
18777;DHT22;9517;51.174;4.160;2022-08-19T07:46:29;20.30;99.90
18777;DHT22;9517;51.174;4.160;2022-08-19T07:48:57;20.40;99.90
18777;DHT22;9517;51.174;4.160;2022-08-19T07:51:24;20.70;99.90
18777;DHT22;9517;51.174;4.160;2022-08-19T07:53:51;20.80;99.90
18777;DHT22;9517;51.174;4.160;2022-08-19T07:56:19;20.70;99.90
18777;DHT22;9517;51.174;4.160;2022-08-19T07:58:48;20.70;99.90
18777;DHT22;9517;51.174;4.160;2022-08-19T08:01:18;20.70;99.90
18777;DHT22;9517;51.174;4.160;2022-08-19T08:03:47;20.70;99.90
18777;DHT22;9517;51.174;4.160;2022-08-19T08:06:32;20.80;99.90
18777;DHT22;9517;51.174;4.160;2022-08-19T08:09:22;20.90;99.90
18777;DHT22;9517;51.174;4.160;2022-08-19T08:11:52;21.00;99.90
18777;DHT22;9517;51.174;4.160;2022-08-19T08:14:22;20.90;99.90
18777;DHT22;9517;51.174;4.160;2022-08-19T08:16:50;20.90;99.90
18777;DHT22;9517;51.174;4.160;2022-08-19T08:19:22;20.90;99.90
18777;DHT22;9517;51.174;4.160;2022-08-19T08:21:50;20.90;99.90
18777;DHT22;9517;51.174;4.160;2022-08-19T08:24:17;21.00;99.90
18777;DHT22;9517;51.174;4.160;2022-08-19T08:26:45;20.90;99.90
18777;DHT22;9517;51.174;4.160;2022-08-19T08:29:13;20.90;99.90
18777;DHT22;9517;51.174;4.160;2022-08-19T08:31:43;20.80;99.90
18777;DHT22;9517;51.174;4.160;2022-08-19T08:34:11;20.80;99.90
18777;DHT22;9517;51.174;4.160;2022-08-19T08:36:42;20.90;99.90
18777;DHT22;9517;51.174;4.160;2022-08-19T08:39:11;20.90;99.90
18777;DHT22;9517;51.174;4.160;2022-08-19T08:41:46;21.00;99.90
18777;DHT22;9517;51.174;4.160;2022-08-19T08:44:18;21.20;99.90
18777;DHT22;9517;51.174;4.160;2022-08-19T08:46:49;21.10;99.90
18777;DHT22;9517;51.174;4.160;2022-08-19T08:49:26;21.10;99.90
18777;DHT22;9517;51.174;4.160;2022-08-19T08:52:03;21.30;99.90
18777;DHT22;9517;51.174;4.160;2022-08-19T08:54:35;21.30;99.90
18777;DHT22;9517;51.174;4.160;2022-08-19T08:57:06;21.20;99.90
18777;DHT22;9517;51.174;4.160;2022-08-19T08:59:37;21.30;99.90
18777;DHT22;9517;51.174;4.160;2022-08-19T09:02:06;21.30;99.90
18777;DHT22;9517;51.174;4.160;2022-08-19T09:04:34;21.30;99.90
18777;DHT22;9517;51.174;4.160;2022-08-19T09:07:14;21.10;99.90
18777;DHT22;9517;51.174;4.160;2022-08-19T09:09:46;21.10;99.90
18777;DHT22;9517;51.174;4.160;2022-08-19T09:12:22;21.00;99.90
18777;DHT22;9517;51.174;4.160;2022-08-19T09:14:54;21.00;99.90
18777;DHT22;9517;51.174;4.160;2022-08-19T09:17:24;21.10;99.90
18777;DHT22;9517;51.174;4.160;2022-08-19T09:19:56;21.20;99.90
18777;DHT22;9517;51.174;4.160;2022-08-19T09:22:25;21.20;99.90
18777;DHT22;9517;51.174;4.160;2022-08-19T09:24:52;21.10;99.90
18777;DHT22;9517;51.174;4.160;2022-08-19T09:27:20;21.00;99.90
18777;DHT22;9517;51.174;4.160;2022-08-19T09:29:49;21.10;99.90
18777;DHT22;9517;51.174;4.160;2022-08-19T09:32:16;21.30;99.90
18777;DHT22;9517;51.174;4.160;2022-08-19T09:34:44;21.20;99.90
18777;DHT22;9517;51.174;4.160;2022-08-19T09:37:11;21.10;99.90
18777;DHT22;9517;51.174;4.160;2022-08-19T09:39:40;21.10;99.90
18777;DHT22;9517;51.174;4.160;2022-08-19T09:42:08;21.20;99.90
18777;DHT22;9517;51.174;4.160;2022-08-19T09:44:38;21.30;99.90
18777;DHT22;9517;51.174;4.160;2022-08-19T09:47:05;21.50;99.90
18777;DHT22;9517;51.174;4.160;2022-08-19T09:49:33;21.30;99.90
18777;DHT22;9517;51.174;4.160;2022-08-19T09:52:00;21.00;99.90
18777;DHT22;9517;51.174;4.160;2022-08-19T09:54:28;21.00;99.90
18777;DHT22;9517;51.174;4.160;2022-08-19T09:56:58;21.10;99.90
18777;DHT22;9517;51.174;4.160;2022-08-19T09:59:27;21.10;99.90
18777;DHT22;9517;51.174;4.160;2022-08-19T10:01:55;21.20;99.90
18777;DHT22;9517;51.174;4.160;2022-08-19T10:04:25;21.40;99.90
18777;DHT22;9517;51.174;4.160;2022-08-19T10:07:13;21.40;99.90
18777;DHT22;9517;51.174;4.160;2022-08-19T10:09:40;21.50;99.90
18777;DHT22;9517;51.174;4.160;2022-08-19T10:12:09;21.70;99.90
18777;DHT22;9517;51.174;4.160;2022-08-19T10:14:37;21.90;99.90
18777;DHT22;9517;51.174;4.160;2022-08-19T10:17:04;21.90;99.90
18777;DHT22;9517;51.174;4.160;2022-08-19T10:19:31;22.20;99.90
18777;DHT22;9517;51.174;4.160;2022-08-19T10:22:03;22.30;99.90
18777;DHT22;9517;51.174;4.160;2022-08-19T10:24:31;22.30;99.90
18777;DHT22;9517;51.174;4.160;2022-08-19T10:27:02;22.40;99.90
18777;DHT22;9517;51.174;4.160;2022-08-19T10:29:33;22.50;99.90
18777;DHT22;9517;51.174;4.160;2022-08-19T10:32:02;22.40;99.90
18777;DHT22;9517;51.174;4.160;2022-08-19T10:34:31;22.50;99.90
18777;DHT22;9517;51.174;4.160;2022-08-19T10:36:59;22.40;99.90
18777;DHT22;9517;51.174;4.160;2022-08-19T10:39:27;22.20;99.90
18777;DHT22;9517;51.174;4.160;2022-08-19T10:41:55;22.20;99.90
18777;DHT22;9517;51.174;4.160;2022-08-19T10:44:23;22.40;99.90
18777;DHT22;9517;51.174;4.160;2022-08-19T10:46:51;22.30;99.90
18777;DHT22;9517;51.174;4.160;2022-08-19T10:49:19;22.30;99.90
18777;DHT22;9517;51.174;4.160;2022-08-19T10:51:49;22.30;99.90
18777;DHT22;9517;51.174;4.160;2022-08-19T10:54:33;22.70;99.90
18777;DHT22;9517;51.174;4.160;2022-08-19T10:57:18;23.10;99.90
18777;DHT22;9517;51.174;4.160;2022-08-19T10:59:45;23.40;99.90
18777;DHT22;9517;51.174;4.160;2022-08-19T11:02:17;23.80;99.90
18777;DHT22;9517;51.174;4.160;2022-08-19T11:04:44;24.20;99.90
18777;DHT22;9517;51.174;4.160;2022-08-19T11:07:11;24.50;99.90
18777;DHT22;9517;51.174;4.160;2022-08-19T11:09:40;24.60;99.90
18777;DHT22;9517;51.174;4.160;2022-08-19T11:12:08;24.80;99.90
18777;DHT22;9517;51.174;4.160;2022-08-19T11:14:35;25.00;99.90
18777;DHT22;9517;51.174;4.160;2022-08-19T11:17:04;25.40;99.90
18777;DHT22;9517;51.174;4.160;2022-08-19T11:19:33;25.40;99.90
18777;DHT22;9517;51.174;4.160;2022-08-19T11:22:01;24.90;99.90
18777;DHT22;9517;51.174;4.160;2022-08-19T11:24:30;24.70;99.90
18777;DHT22;9517;51.174;4.160;2022-08-19T11:27:03;24.80;99.90
18777;DHT22;9517;51.174;4.160;2022-08-19T11:29:31;25.20;99.90
18777;DHT22;9517;51.174;4.160;2022-08-19T11:32:02;25.60;99.90
18777;DHT22;9517;51.174;4.160;2022-08-19T11:34:31;25.60;99.90
18777;DHT22;9517;51.174;4.160;2022-08-19T11:36:58;25.70;99.90
18777;DHT22;9517;51.174;4.160;2022-08-19T11:39:28;25.90;99.90
18777;DHT22;9517;51.174;4.160;2022-08-19T11:41:57;26.30;99.90
18777;DHT22;9517;51.174;4.160;2022-08-19T11:44:24;26.50;99.90
18777;DHT22;9517;51.174;4.160;2022-08-19T11:46:52;26.30;99.90
18777;DHT22;9517;51.174;4.160;2022-08-19T11:49:20;26.00;99.90
18777;DHT22;9517;51.174;4.160;2022-08-19T11:51:49;26.00;99.90
18777;DHT22;9517;51.174;4.160;2022-08-19T11:54:17;25.70;99.90
18777;DHT22;9517;51.174;4.160;2022-08-19T11:56:44;25.70;99.90
18777;DHT22;9517;51.174;4.160;2022-08-19T11:59:13;25.50;99.90
18777;DHT22;9517;51.174;4.160;2022-08-19T12:01:40;25.40;99.90
18777;DHT22;9517;51.174;4.160;2022-08-19T12:04:08;25.40;99.90
18777;DHT22;9517;51.174;4.160;2022-08-19T12:06:39;25.20;99.90
18777;DHT22;9517;51.174;4.160;2022-08-19T12:09:10;25.00;99.90
18777;DHT22;9517;51.174;4.160;2022-08-19T12:11:38;25.00;99.90
18777;DHT22;9517;51.174;4.160;2022-08-19T12:14:06;25.20;99.90
18777;DHT22;9517;51.174;4.160;2022-08-19T12:16:33;25.60;99.90
18777;DHT22;9517;51.174;4.160;2022-08-19T12:19:02;25.70;99.90
18777;DHT22;9517;51.174;4.160;2022-08-19T12:21:32;25.40;99.90
18777;DHT22;9517;51.174;4.160;2022-08-19T12:24:00;25.00;99.90
18777;DHT22;9517;51.174;4.160;2022-08-19T12:26:30;24.80;99.90
18777;DHT22;9517;51.174;4.160;2022-08-19T12:28:58;25.00;99.90
18777;DHT22;9517;51.174;4.160;2022-08-19T12:31:26;25.10;99.90
18777;DHT22;9517;51.174;4.160;2022-08-19T12:33:53;25.00;99.90
18777;DHT22;9517;51.174;4.160;2022-08-19T12:36:20;25.30;99.90
18777;DHT22;9517;51.174;4.160;2022-08-19T12:38:48;25.50;99.90
18777;DHT22;9517;51.174;4.160;2022-08-19T12:41:17;25.80;99.90
18777;DHT22;9517;51.174;4.160;2022-08-19T12:43:45;25.80;99.90
18777;DHT22;9517;51.174;4.160;2022-08-19T12:46:13;25.70;99.90
18777;DHT22;9517;51.174;4.160;2022-08-19T12:48:40;25.60;99.90
18777;DHT22;9517;51.174;4.160;2022-08-19T12:51:10;25.80;99.90
18777;DHT22;9517;51.174;4.160;2022-08-19T12:53:37;26.30;99.90
18777;DHT22;9517;51.174;4.160;2022-08-19T12:56:05;26.60;99.90
18777;DHT22;9517;51.174;4.160;2022-08-19T12:58:32;26.80;99.90
18777;DHT22;9517;51.174;4.160;2022-08-19T13:01:06;26.40;99.90
18777;DHT22;9517;51.174;4.160;2022-08-19T13:03:33;26.40;99.90
18777;DHT22;9517;51.174;4.160;2022-08-19T13:06:00;27.00;99.90
18777;DHT22;9517;51.174;4.160;2022-08-19T13:08:27;27.40;99.90
18777;DHT22;9517;51.174;4.160;2022-08-19T13:10:54;28.10;99.90
18777;DHT22;9517;51.174;4.160;2022-08-19T13:13:21;28.50;99.90
18777;DHT22;9517;51.174;4.160;2022-08-19T13:15:51;28.90;99.90
18777;DHT22;9517;51.174;4.160;2022-08-19T13:18:20;29.70;99.90
18777;DHT22;9517;51.174;4.160;2022-08-19T13:20:47;31.50;99.90
18777;DHT22;9517;51.174;4.160;2022-08-19T13:23:14;32.10;99.90
18777;DHT22;9517;51.174;4.160;2022-08-19T13:25:41;31.90;99.90
18777;DHT22;9517;51.174;4.160;2022-08-19T13:28:08;31.10;99.90
18777;DHT22;9517;51.174;4.160;2022-08-19T13:30:35;30.00;99.90
18777;DHT22;9517;51.174;4.160;2022-08-19T13:33:22;29.00;99.90
18777;DHT22;9517;51.174;4.160;2022-08-19T13:35:56;28.30;99.90
18777;DHT22;9517;51.174;4.160;2022-08-19T13:38:24;27.90;99.90
18777;DHT22;9517;51.174;4.160;2022-08-19T13:40:53;27.70;99.90
18777;DHT22;9517;51.174;4.160;2022-08-19T13:43:22;27.50;99.90
18777;DHT22;9517;51.174;4.160;2022-08-19T13:45:50;27.60;99.90
18777;DHT22;9517;51.174;4.160;2022-08-19T13:48:20;28.30;99.90
18777;DHT22;9517;51.174;4.160;2022-08-19T13:50:48;28.60;99.90
18777;DHT22;9517;51.174;4.160;2022-08-19T13:53:15;28.40;99.90
18777;DHT22;9517;51.174;4.160;2022-08-19T13:55:43;28.10;99.90
18777;DHT22;9517;51.174;4.160;2022-08-19T13:58:11;27.70;99.90
18777;DHT22;9517;51.174;4.160;2022-08-19T14:00:42;26.90;99.90
18777;DHT22;9517;51.174;4.160;2022-08-19T14:03:09;26.20;99.90
18777;DHT22;9517;51.174;4.160;2022-08-19T14:05:38;25.90;99.90
18777;DHT22;9517;51.174;4.160;2022-08-19T14:08:05;25.40;99.90
18777;DHT22;9517;51.174;4.160;2022-08-19T14:10:32;24.90;99.90
18777;DHT22;9517;51.174;4.160;2022-08-19T14:13:01;24.50;99.90
18777;DHT22;9517;51.174;4.160;2022-08-19T14:15:31;24.30;99.90
18777;DHT22;9517;51.174;4.160;2022-08-19T14:17:58;24.10;99.90
18777;DHT22;9517;51.174;4.160;2022-08-19T14:20:26;23.50;99.90
18777;DHT22;9517;51.174;4.160;2022-08-19T14:22:55;22.40;99.90
18777;DHT22;9517;51.174;4.160;2022-08-19T14:25:23;21.70;99.90
18777;DHT22;9517;51.174;4.160;2022-08-19T14:27:51;21.10;99.90
18777;DHT22;9517;51.174;4.160;2022-08-19T14:30:20;20.70;99.90
18777;DHT22;9517;51.174;4.160;2022-08-19T14:32:47;20.70;99.90
18777;DHT22;9517;51.174;4.160;2022-08-19T14:35:15;20.60;99.90
18777;DHT22;9517;51.174;4.160;2022-08-19T14:37:44;20.70;99.90
18777;DHT22;9517;51.174;4.160;2022-08-19T14:40:15;20.80;99.90
18777;DHT22;9517;51.174;4.160;2022-08-19T14:42:42;20.90;99.90
18777;DHT22;9517;51.174;4.160;2022-08-19T14:45:11;21.10;99.90
18777;DHT22;9517;51.174;4.160;2022-08-19T14:47:38;21.40;99.90
18777;DHT22;9517;51.174;4.160;2022-08-19T14:50:08;21.60;99.90
18777;DHT22;9517;51.174;4.160;2022-08-19T14:52:35;21.90;99.90
18777;DHT22;9517;51.174;4.160;2022-08-19T14:55:04;22.20;99.90
18777;DHT22;9517;51.174;4.160;2022-08-19T14:57:33;22.30;99.90
18777;DHT22;9517;51.174;4.160;2022-08-19T15:00:00;22.30;99.90
18777;DHT22;9517;51.174;4.160;2022-08-19T15:02:27;22.40;99.90
18777;DHT22;9517;51.174;4.160;2022-08-19T15:04:54;22.70;99.90
18777;DHT22;9517;51.174;4.160;2022-08-19T15:07:21;22.90;99.90
18777;DHT22;9517;51.174;4.160;2022-08-19T15:09:49;23.20;99.90
18777;DHT22;9517;51.174;4.160;2022-08-19T15:12:17;23.90;99.90
18777;DHT22;9517;51.174;4.160;2022-08-19T15:14:45;24.50;99.90
18777;DHT22;9517;51.174;4.160;2022-08-19T15:17:16;25.20;99.90
18777;DHT22;9517;51.174;4.160;2022-08-19T15:19:44;26.30;99.90
18777;DHT22;9517;51.174;4.160;2022-08-19T15:22:12;26.80;99.90
18777;DHT22;9517;51.174;4.160;2022-08-19T15:24:39;26.80;99.90
18777;DHT22;9517;51.174;4.160;2022-08-19T15:27:08;27.50;99.90
18777;DHT22;9517;51.174;4.160;2022-08-19T15:29:35;27.50;99.90
18777;DHT22;9517;51.174;4.160;2022-08-19T15:32:05;28.00;99.90
18777;DHT22;9517;51.174;4.160;2022-08-19T15:34:33;28.10;99.90
18777;DHT22;9517;51.174;4.160;2022-08-19T15:37:00;27.60;99.90
18777;DHT22;9517;51.174;4.160;2022-08-19T15:39:29;26.80;99.90
18777;DHT22;9517;51.174;4.160;2022-08-19T15:41:56;26.40;99.90
18777;DHT22;9517;51.174;4.160;2022-08-19T15:44:26;26.30;99.90
18777;DHT22;9517;51.174;4.160;2022-08-19T15:46:53;26.30;99.90
18777;DHT22;9517;51.174;4.160;2022-08-19T15:49:21;26.70;99.90
18777;DHT22;9517;51.174;4.160;2022-08-19T15:51:49;26.70;99.90
18777;DHT22;9517;51.174;4.160;2022-08-19T15:54:19;26.60;99.90
18777;DHT22;9517;51.174;4.160;2022-08-19T15:56:47;26.10;99.90